createdAt,value
2022-08-14T00:02:02.363Z,99.90
2022-08-14T00:04:35.651Z,99.90
2022-08-14T00:07:14.280Z,99.90
2022-08-14T00:10:01.246Z,99.90
2022-08-14T00:12:33.125Z,99.90
2022-08-14T00:15:03.645Z,99.90
2022-08-14T00:17:42.627Z,99.90
2022-08-14T00:20:24.189Z,99.90
2022-08-14T00:23:14.705Z,99.90
2022-08-14T00:25:53.675Z,99.90
2022-08-14T00:28:29.020Z,99.90
2022-08-14T00:31:02.015Z,99.90
2022-08-14T00:33:51.441Z,99.90
2022-08-14T00:36:37.053Z,99.90
2022-08-14T00:39:09.814Z,99.90
2022-08-14T00:41:39.070Z,99.90
2022-08-14T00:44:08.142Z,99.90
2022-08-14T00:46:37.882Z,99.90
2022-08-14T00:49:11.576Z,99.90
2022-08-14T00:51:45.568Z,99.90
2022-08-14T00:54:21.971Z,99.90
2022-08-14T00:56:55.382Z,99.90
2022-08-14T00:59:25.492Z,99.90
2022-08-14T01:01:58.673Z,99.90
2022-08-14T01:04:38.001Z,99.90
2022-08-14T01:07:21.651Z,99.90
2022-08-14T01:09:54.122Z,99.90
2022-08-14T01:12:26.526Z,99.90
2022-08-14T01:14:58.653Z,99.90
2022-08-14T01:17:49.766Z,99.90
2022-08-14T01:20:40.027Z,99.90
2022-08-14T01:23:16.299Z,99.90
2022-08-14T01:25:51.063Z,99.90
2022-08-14T01:28:47.399Z,99.90
2022-08-14T01:31:12.533Z,99.90
2022-08-14T01:35:15.863Z,99.90
2022-08-14T01:36:39.243Z,99.90
2022-08-14T01:39:13.199Z,99.90
2022-08-14T01:41:43.427Z,99.90
2022-08-14T01:44:33.448Z,99.90
2022-08-14T01:47:11.701Z,99.90
2022-08-14T01:49:42.701Z,99.90
2022-08-14T01:52:33.732Z,99.90
2022-08-14T01:55:06.780Z,99.90
2022-08-14T01:57:56.594Z,99.90
2022-08-14T02:00:27.710Z,99.90
2022-08-14T02:02:58.400Z,99.90
2022-08-14T02:05:29.508Z,99.90
2022-08-14T02:08:08.761Z,99.90
2022-08-14T02:10:46.839Z,99.90
2022-08-14T02:13:19.692Z,99.90
2022-08-14T02:15:48.526Z,99.90
2022-08-14T02:18:18.985Z,99.90
2022-08-14T02:20:51.317Z,99.90
2022-08-14T02:23:29.113Z,99.90
2022-08-14T02:26:24.664Z,99.90
2022-08-14T02:28:58.340Z,99.90
2022-08-14T02:31:42.051Z,99.90
2022-08-14T02:34:21.880Z,99.90
2022-08-14T02:37:04.947Z,99.90
2022-08-14T02:39:37.606Z,99.90
2022-08-14T02:42:13.193Z,99.90
2022-08-14T02:44:49.179Z,99.90
2022-08-14T02:47:20.973Z,99.90
2022-08-14T02:49:56.724Z,99.90
2022-08-14T02:52:56.304Z,99.90
2022-08-14T02:55:15.665Z,99.90
2022-08-14T02:58:03.279Z,99.90
2022-08-14T03:00:35.443Z,99.90
2022-08-14T03:03:08.332Z,99.90
2022-08-14T03:05:41.284Z,99.90
2022-08-14T03:08:11.998Z,99.90
2022-08-14T03:10:48.586Z,99.90
2022-08-14T03:13:21.999Z,99.90
2022-08-14T03:15:55.005Z,99.90
2022-08-14T03:18:31.387Z,99.90
2022-08-14T03:21:04.781Z,99.90
2022-08-14T03:23:37.858Z,99.90
2022-08-14T03:26:12.695Z,99.90
2022-08-14T03:28:49.825Z,99.90
2022-08-14T03:31:26.121Z,99.90
2022-08-14T03:33:59.874Z,99.90
2022-08-14T03:37:39.231Z,99.90
2022-08-14T03:39:22.551Z,99.90
2022-08-14T03:41:54.026Z,99.90
2022-08-14T03:45:18.747Z,99.90
2022-08-14T03:47:15.146Z,99.90
2022-08-14T03:49:49.796Z,99.90
2022-08-14T03:52:40.532Z,99.90
2022-08-14T03:55:09.932Z,99.90
2022-08-14T03:57:40.562Z,99.90
2022-08-14T04:00:42.856Z,99.90
2022-08-14T04:03:02.945Z,99.90
2022-08-14T04:05:37.958Z,99.90
2022-08-14T04:08:29.901Z,99.90
2022-08-14T04:11:01.956Z,99.90
2022-08-14T04:13:34.461Z,99.90
2022-08-14T04:16:10.264Z,99.90
2022-08-14T04:18:42.269Z,99.90
2022-08-14T04:21:11.940Z,99.90
2022-08-14T04:23:40.321Z,99.90
2022-08-14T04:26:14.575Z,99.90
2022-08-14T04:29:01.541Z,99.90
2022-08-14T04:32:58.578Z,99.90
2022-08-14T04:34:27.314Z,99.90
2022-08-14T04:37:17.481Z,99.90
2022-08-14T04:40:11.128Z,99.90
2022-08-14T04:42:57.081Z,99.90
2022-08-14T04:45:30.762Z,99.90
2022-08-14T04:48:38.725Z,99.90
2022-08-14T04:51:05.800Z,99.90
2022-08-14T04:53:36.249Z,99.90
2022-08-14T04:56:34.070Z,99.90
2022-08-14T04:59:10.585Z,99.90
2022-08-14T05:01:45.318Z,99.90
2022-08-14T05:04:20.732Z,99.90
2022-08-14T05:06:53.711Z,99.90
2022-08-14T05:09:23.560Z,99.90
2022-08-14T05:11:53.134Z,99.90
2022-08-14T05:14:45.224Z,99.90
2022-08-14T05:17:13.281Z,99.90
2022-08-14T05:19:44.294Z,99.90
2022-08-14T05:22:31.664Z,99.90
2022-08-14T05:25:01.214Z,99.90
2022-08-14T05:27:31.008Z,99.90
2022-08-14T05:29:59.957Z,99.90
2022-08-14T05:32:28.506Z,99.90
2022-08-14T05:35:00.777Z,99.90
2022-08-14T05:37:30.948Z,99.90
2022-08-14T05:40:02.543Z,99.90
2022-08-14T05:42:33.960Z,99.90
2022-08-14T05:45:04.037Z,99.90
2022-08-14T05:47:33.969Z,99.90
2022-08-14T05:50:18.564Z,99.90
2022-08-14T05:52:50.443Z,99.90
2022-08-14T05:55:22.186Z,99.90
2022-08-14T05:57:54.235Z,99.90
2022-08-14T06:00:29.263Z,99.90
2022-08-14T06:03:00.536Z,99.90
2022-08-14T06:05:33.933Z,99.90
2022-08-14T06:08:08.569Z,99.90
2022-08-14T06:10:51.697Z,99.90
2022-08-14T06:13:20.666Z,99.90
2022-08-14T06:15:50.721Z,99.90
2022-08-14T06:18:22.305Z,99.90
2022-08-14T06:20:57.180Z,99.90
2022-08-14T06:23:26.163Z,99.90
2022-08-14T06:25:55.685Z,99.90
2022-08-14T06:28:28.653Z,99.90
2022-08-14T06:30:57.609Z,99.90
2022-08-14T06:33:45.772Z,99.90
2022-08-14T06:36:19.149Z,99.90
2022-08-14T06:38:50.245Z,99.90
2022-08-14T06:41:20.926Z,99.90
2022-08-14T06:44:07.045Z,99.90
2022-08-14T06:46:38.267Z,99.90
2022-08-14T06:49:06.478Z,99.90
2022-08-14T06:51:38.972Z,99.90
2022-08-14T06:54:13.396Z,99.90
2022-08-14T06:56:44.217Z,99.90
2022-08-14T06:59:16.011Z,99.90
2022-08-14T07:02:06.015Z,99.90
2022-08-14T07:04:59.246Z,99.90
2022-08-14T07:07:37.510Z,99.90
2022-08-14T07:10:16.849Z,99.90
2022-08-14T07:12:56.450Z,99.90
2022-08-14T07:15:32.314Z,99.90
2022-08-14T07:18:01.916Z,99.90
2022-08-14T07:20:32.078Z,99.90
2022-08-14T07:23:07.830Z,99.90
2022-08-14T07:25:37.924Z,99.90
2022-08-14T07:28:12.898Z,99.90
2022-08-14T07:30:50.817Z,99.90
2022-08-14T07:33:29.054Z,99.90
2022-08-14T07:36:00.028Z,99.90
2022-08-14T07:38:36.256Z,99.90
2022-08-14T07:41:11.713Z,99.90
2022-08-14T07:43:44.024Z,99.90
2022-08-14T07:46:16.305Z,99.90
2022-08-14T07:48:50.132Z,99.90
2022-08-14T07:51:21.482Z,99.90
2022-08-14T07:53:57.218Z,99.90
2022-08-14T07:56:44.296Z,99.90
2022-08-14T07:59:18.884Z,99.90
2022-08-14T08:01:48.214Z,99.90
2022-08-14T08:04:27.179Z,99.90
2022-08-14T08:06:56.009Z,99.90
2022-08-14T08:09:31.943Z,99.90
2022-08-14T08:12:04.534Z,99.90
2022-08-14T08:14:56.015Z,99.90
2022-08-14T08:17:24.553Z,99.90
2022-08-14T08:19:53.038Z,99.90
2022-08-14T08:22:21.936Z,99.90
2022-08-14T08:24:51.662Z,99.90
2022-08-14T08:27:21.467Z,99.90
2022-08-14T08:29:50.909Z,99.90
2022-08-14T08:32:20.065Z,99.90
2022-08-14T08:34:49.809Z,99.90
2022-08-14T08:37:18.462Z,99.90
2022-08-14T08:40:03.466Z,99.90
2022-08-14T08:42:38.805Z,99.90
2022-08-14T08:45:17.308Z,99.90
2022-08-14T08:47:47.223Z,99.90
2022-08-14T08:50:31.459Z,99.90
2022-08-14T08:53:02.497Z,99.90
2022-08-14T08:55:34.854Z,99.90
2022-08-14T08:58:16.269Z,99.90
2022-08-14T09:00:50.091Z,99.90
2022-08-14T09:03:27.434Z,99.70
2022-08-14T09:05:58.101Z,99.90
2022-08-14T09:08:32.776Z,99.90
2022-08-14T09:11:18.820Z,99.90
2022-08-14T09:13:51.350Z,99.20
2022-08-14T09:16:23.454Z,96.70
2022-08-14T09:18:53.899Z,96.10
2022-08-14T09:21:23.810Z,96.30
2022-08-14T09:24:29.260Z,94.30
2022-08-14T09:26:48.871Z,92.20
2022-08-14T09:29:23.405Z,92.50
2022-08-14T09:31:57.559Z,93.70
2022-08-14T09:34:58.529Z,87.30
2022-08-14T09:37:41.995Z,93.40
2022-08-14T09:40:21.806Z,90.80
2022-08-14T09:43:01.530Z,82.30
2022-08-14T09:45:39.713Z,80.30
2022-08-14T09:48:17.327Z,81.20
2022-08-14T09:50:48.419Z,76.50
2022-08-14T09:54:17.825Z,74.10
2022-08-14T09:56:30.659Z,79.00
2022-08-14T09:59:15.438Z,73.80
2022-08-14T10:01:53.007Z,79.40
2022-08-14T10:04:36.001Z,75.30
2022-08-14T10:07:08.429Z,76.00
2022-08-14T10:09:57.748Z,73.30
2022-08-14T10:12:43.963Z,73.00
2022-08-14T10:15:21.382Z,70.90
2022-08-14T10:17:53.271Z,70.50
2022-08-14T10:20:40.367Z,72.00
2022-08-14T10:23:16.292Z,71.30
2022-08-14T10:25:50.811Z,69.80
2022-08-14T10:28:39.016Z,69.60
2022-08-14T10:31:19.770Z,67.50
2022-08-14T10:34:12.789Z,69.90
2022-08-14T10:36:47.503Z,62.00
2022-08-14T10:39:19.333Z,59.90
2022-08-14T10:41:54.005Z,57.50
2022-08-14T10:44:29.712Z,61.80
2022-08-14T10:47:40.511Z,57.10
2022-08-14T10:50:03.048Z,52.60
2022-08-14T10:52:34.703Z,51.70
2022-08-14T10:55:14.318Z,53.20
2022-08-14T10:57:51.647Z,49.40
2022-08-14T11:00:30.140Z,51.90
2022-08-14T11:03:07.949Z,49.20
2022-08-14T11:05:46.196Z,48.60
2022-08-14T11:08:15.550Z,47.20
2022-08-14T11:10:47.692Z,46.90
2022-08-14T11:13:21.390Z,48.50
2022-08-14T11:15:53.693Z,47.40
2022-08-14T11:18:32.059Z,47.20
2022-08-14T11:21:08.303Z,49.10
2022-08-14T11:23:40.863Z,46.20
2022-08-14T11:26:13.533Z,45.90
2022-08-14T11:28:48.556Z,46.10
2022-08-14T11:31:22.157Z,45.00
2022-08-14T11:33:55.321Z,48.60
2022-08-14T11:37:02.012Z,48.60
2022-08-14T11:39:34.728Z,46.60
2022-08-14T11:42:55.512Z,47.30
2022-08-14T11:45:00.331Z,46.40
2022-08-14T11:47:35.486Z,47.80
2022-08-14T11:50:25.065Z,47.20
2022-08-14T11:53:07.301Z,51.50
2022-08-14T11:55:39.258Z,50.80
2022-08-14T11:58:15.639Z,51.50
2022-08-14T12:00:57.288Z,51.00
2022-08-14T12:03:46.008Z,51.60
2022-08-14T12:06:28.682Z,53.80
2022-08-14T12:09:08.680Z,52.70
2022-08-14T12:11:46.956Z,51.80
2022-08-14T12:14:34.691Z,53.90
2022-08-14T12:17:12.203Z,55.80
2022-08-14T12:19:53.803Z,56.50
2022-08-14T12:22:35.376Z,57.10
2022-08-14T12:25:10.905Z,56.30
2022-08-14T12:27:53.612Z,56.30
2022-08-14T12:30:40.092Z,55.30
2022-08-14T12:33:26.902Z,58.10
2022-08-14T12:36:05.434Z,54.40
2022-08-14T12:38:38.383Z,56.10
2022-08-14T12:41:20.818Z,58.10
2022-08-14T12:43:53.532Z,63.00
2022-08-14T12:46:27.059Z,60.60
2022-08-14T12:48:58.783Z,62.30
2022-08-14T12:51:28.678Z,66.50
2022-08-14T12:54:00.390Z,61.50
2022-08-14T12:56:34.046Z,64.40
2022-08-14T12:59:03.566Z,68.10
2022-08-14T13:01:59.738Z,64.90
2022-08-14T13:04:23.218Z,66.10
2022-08-14T13:06:51.827Z,67.90
2022-08-14T13:09:20.762Z,66.00
2022-08-14T13:11:59.318Z,68.40
2022-08-14T13:14:48.974Z,69.80
2022-08-14T13:17:18.441Z,69.90
2022-08-14T13:19:47.994Z,70.20
2022-08-14T13:22:33.490Z,72.30
2022-08-14T13:25:05.538Z,70.00
2022-08-14T13:27:39.164Z,70.40
2022-08-14T13:30:14.388Z,71.00
2022-08-14T13:32:50.318Z,73.10
2022-08-14T13:35:20.110Z,72.70
2022-08-14T13:37:52.092Z,74.80
2022-08-14T13:40:26.379Z,73.80
2022-08-14T13:42:57.836Z,74.70
2022-08-14T13:45:59.578Z,76.60
2022-08-14T13:48:28.530Z,76.70
2022-08-14T13:51:04.785Z,76.30
2022-08-14T13:53:38.289Z,78.00
2022-08-14T13:56:25.722Z,77.10
2022-08-14T13:59:04.783Z,78.80
2022-08-14T14:01:43.312Z,79.20
2022-08-14T14:04:19.357Z,79.20
2022-08-14T14:06:51.111Z,82.00
2022-08-14T14:09:32.697Z,82.20
2022-08-14T14:12:38.550Z,82.10
2022-08-14T14:15:04.865Z,83.00
2022-08-14T14:17:33.874Z,85.70
2022-08-14T14:20:03.066Z,84.60
2022-08-14T14:23:00.692Z,84.80
2022-08-14T14:25:22.526Z,87.50
2022-08-14T14:27:53.556Z,86.30
2022-08-14T14:30:46.851Z,88.30
2022-08-14T14:33:44.547Z,86.80
2022-08-14T14:36:04.934Z,86.70
2022-08-14T14:38:34.878Z,87.50
2022-08-14T14:41:05.696Z,88.90
2022-08-14T14:43:44.990Z,89.20
2022-08-14T14:46:16.329Z,90.10
2022-08-14T14:48:53.938Z,90.00
2022-08-14T14:51:24.303Z,90.20
2022-08-14T14:53:54.441Z,90.20
2022-08-14T14:56:49.812Z,90.10
2022-08-14T14:59:14.128Z,90.80
2022-08-14T15:01:50.892Z,91.20
2022-08-14T15:04:20.924Z,91.40
2022-08-14T15:06:50.200Z,91.10
2022-08-14T15:09:23.634Z,92.10
2022-08-14T15:11:52.235Z,93.70
2022-08-14T15:14:54.664Z,93.30
2022-08-14T15:17:11.998Z,93.30
2022-08-14T15:19:42.105Z,93.70
2022-08-14T15:22:29.011Z,93.30
2022-08-14T15:24:58.919Z,93.30
2022-08-14T15:27:29.393Z,94.10
2022-08-14T15:29:57.576Z,93.50
2022-08-14T15:32:29.123Z,95.30
2022-08-14T15:34:58.313Z,95.70
2022-08-14T15:37:33.807Z,95.80
2022-08-14T15:40:03.322Z,95.20
2022-08-14T15:42:39.421Z,94.70
2022-08-14T15:45:12.847Z,94.50
2022-08-14T15:47:44.642Z,95.10
2022-08-14T15:50:14.082Z,95.30
2022-08-14T15:52:44.747Z,94.90
2022-08-14T15:55:16.433Z,96.60
2022-08-14T15:58:02.297Z,94.70
2022-08-14T16:00:51.997Z,95.50
2022-08-14T16:03:27.582Z,97.70
2022-08-14T16:06:04.677Z,98.40
2022-08-14T16:08:34.003Z,99.90
2022-08-14T16:11:04.664Z,99.90
2022-08-14T16:13:42.023Z,99.90
2022-08-14T16:16:48.971Z,99.90
2022-08-14T16:19:07.432Z,99.90
2022-08-14T16:21:40.567Z,99.90
2022-08-14T16:24:26.939Z,99.90
2022-08-14T16:27:00.788Z,99.90
2022-08-14T16:29:47.335Z,99.90
2022-08-14T16:32:32.160Z,99.90
2022-08-14T16:35:05.077Z,99.90
2022-08-14T16:37:35.244Z,99.90
2022-08-14T16:40:04.963Z,99.90
2022-08-14T16:43:02.480Z,99.90
2022-08-14T16:45:27.338Z,99.20
2022-08-14T16:47:56.554Z,98.60
2022-08-14T16:50:43.173Z,98.60
2022-08-14T16:53:17.892Z,98.20
2022-08-14T16:55:53.853Z,97.50
2022-08-14T16:58:29.831Z,97.20
2022-08-14T17:01:22.501Z,97.60
2022-08-14T17:04:04.636Z,97.60
2022-08-14T17:06:46.062Z,98.60
2022-08-14T17:09:43.716Z,96.40
2022-08-14T17:12:20.106Z,96.90
2022-08-14T17:15:09.922Z,97.50
2022-08-14T17:17:56.381Z,96.60
2022-08-14T17:20:39.329Z,96.80
2022-08-14T17:23:17.334Z,96.40
2022-08-14T17:25:51.078Z,96.90
2022-08-14T17:28:50.470Z,97.30
2022-08-14T17:31:12.143Z,97.00
2022-08-14T17:33:44.264Z,98.10
2022-08-14T17:36:21.046Z,96.90
2022-08-14T17:39:06.506Z,98.30
2022-08-14T17:41:43.587Z,98.40
2022-08-14T17:44:33.943Z,99.10
2022-08-14T17:47:11.358Z,99.80
2022-08-14T17:49:46.953Z,99.90
2022-08-14T17:52:33.897Z,99.90
2022-08-14T17:55:07.452Z,99.90
2022-08-14T17:57:41.252Z,99.90
2022-08-14T18:00:13.154Z,99.90
2022-08-14T18:02:51.287Z,99.90
2022-08-14T18:05:23.420Z,99.90
2022-08-14T18:08:32.357Z,99.90
2022-08-14T18:11:02.526Z,99.90
2022-08-14T18:13:51.259Z,99.90
2022-08-14T18:16:22.108Z,99.90
2022-08-14T18:18:51.981Z,99.90
2022-08-14T18:21:24.841Z,99.90
2022-08-14T18:24:20.302Z,99.90
2022-08-14T18:27:08.688Z,99.90
2022-08-14T18:29:54.929Z,99.90
2022-08-14T18:32:47.247Z,99.90
2022-08-14T18:35:46.164Z,99.90
2022-08-14T18:38:26.084Z,99.90
2022-08-14T18:40:56.402Z,99.90
2022-08-14T18:43:45.258Z,99.90
2022-08-14T18:46:59.580Z,99.90
2022-08-14T18:49:17.164Z,99.90
2022-08-14T18:51:47.015Z,99.90
2022-08-14T18:54:37.412Z,99.90
2022-08-14T18:57:09.038Z,99.90
2022-08-14T18:59:42.398Z,99.90
2022-08-14T19:02:44.582Z,99.90
2022-08-14T19:05:14.515Z,99.90
2022-08-14T19:07:43.618Z,99.90
2022-08-14T19:10:31.642Z,99.90
2022-08-14T19:13:12.283Z,99.90
2022-08-14T19:15:44.996Z,99.90
2022-08-14T19:18:28.726Z,99.90
2022-08-14T19:20:59.230Z,99.90
2022-08-14T19:23:43.266Z,99.90
2022-08-14T19:26:34.018Z,99.90
2022-08-14T19:29:24.191Z,99.90
2022-08-14T19:31:58.982Z,99.90
2022-08-14T19:34:40.036Z,99.90
2022-08-14T19:37:10.208Z,99.90
2022-08-14T19:39:53.876Z,99.90
2022-08-14T19:42:28.440Z,99.90
2022-08-14T19:44:59.561Z,99.90
2022-08-14T19:47:41.356Z,99.90
2022-08-14T19:50:38.013Z,99.90
2022-08-14T19:53:11.151Z,99.90
2022-08-14T19:55:45.866Z,99.90
2022-08-14T19:58:14.432Z,99.90
2022-08-14T20:00:52.010Z,99.90
2022-08-14T20:03:24.568Z,99.90
2022-08-14T20:06:05.278Z,99.90
2022-08-14T20:10:58.350Z,99.90
2022-08-14T20:12:02.063Z,99.90
2022-08-14T20:14:20.948Z,99.90
2022-08-14T20:16:54.729Z,99.90
2022-08-14T20:19:28.728Z,99.90
2022-08-14T20:22:34.770Z,99.90
2022-08-14T20:24:47.557Z,99.90
2022-08-14T20:27:45.963Z,99.90
2022-08-14T20:30:37.591Z,99.90
2022-08-14T20:33:10.622Z,99.90
2022-08-14T20:35:46.893Z,99.90
2022-08-14T20:38:29.806Z,99.90
2022-08-14T20:41:06.803Z,99.90
2022-08-14T20:43:57.044Z,99.90
2022-08-14T20:46:29.771Z,99.90
2022-08-14T20:49:00.244Z,99.90
2022-08-14T20:51:47.767Z,99.90
2022-08-14T20:54:34.492Z,99.90
2022-08-14T20:57:09.195Z,99.90
2022-08-14T20:59:43.404Z,99.90
2022-08-14T21:02:28.575Z,99.90
2022-08-14T21:05:00.728Z,99.90
2022-08-14T21:07:36.579Z,99.90
2022-08-14T21:10:33.529Z,99.90
2022-08-14T21:13:25.713Z,99.90
2022-08-14T21:15:57.552Z,99.90
2022-08-14T21:18:29.767Z,99.90
2022-08-14T21:20:59.923Z,99.90
2022-08-14T21:23:32.444Z,99.90
2022-08-14T21:26:05.447Z,99.90
2022-08-14T21:28:35.345Z,99.90
2022-08-14T21:31:05.638Z,99.90
2022-08-14T21:33:36.521Z,99.90
2022-08-14T21:36:08.348Z,99.90
2022-08-14T21:38:42.476Z,99.90
2022-08-14T21:41:42.534Z,99.90
2022-08-14T21:44:17.988Z,99.90
2022-08-14T21:46:53.625Z,99.90
2022-08-14T21:49:37.553Z,99.90
2022-08-14T21:52:51.347Z,99.90
2022-08-14T21:55:00.715Z,99.90
2022-08-14T21:57:57.041Z,99.90
2022-08-14T22:00:35.893Z,99.90
2022-08-14T22:03:09.034Z,99.90
2022-08-14T22:05:41.134Z,99.90
2022-08-14T22:08:13.870Z,99.90
2022-08-14T22:10:44.927Z,99.90
2022-08-14T22:13:16.789Z,99.90
2022-08-14T22:15:49.638Z,99.90
2022-08-14T22:18:21.197Z,99.90
2022-08-14T22:20:53.957Z,99.90
2022-08-14T22:23:26.127Z,99.90
2022-08-14T22:25:55.252Z,99.90
2022-08-14T22:28:32.634Z,99.90
2022-08-14T22:31:02.844Z,99.90
2022-08-14T22:33:32.445Z,99.90
2022-08-14T22:36:25.150Z,99.90
2022-08-14T22:38:54.508Z,99.90
2022-08-14T22:41:26.892Z,99.90
2022-08-14T22:44:03.319Z,99.90
2022-08-14T22:46:32.497Z,99.90
2022-08-14T22:49:00.971Z,99.90
2022-08-14T22:51:48.791Z,99.90
2022-08-14T22:54:53.041Z,99.90
2022-08-14T22:57:10.235Z,99.90
2022-08-14T22:59:39.727Z,99.90
2022-08-14T23:02:13.351Z,99.90
2022-08-14T23:04:53.853Z,99.90
2022-08-14T23:07:24.648Z,99.90
2022-08-14T23:09:56.839Z,99.90
2022-08-14T23:12:29.423Z,99.90
2022-08-14T23:14:59.288Z,99.90
2022-08-14T23:17:38.993Z,99.90
2022-08-14T23:20:19.290Z,99.90
2022-08-14T23:22:51.802Z,99.90
2022-08-14T23:25:44.618Z,99.90
2022-08-14T23:28:33.575Z,99.90
2022-08-14T23:31:01.239Z,99.90
2022-08-14T23:33:29.765Z,99.90
2022-08-14T23:35:59.068Z,99.90
2022-08-14T23:38:30.044Z,99.90
2022-08-14T23:41:00.779Z,99.90
2022-08-14T23:43:31.318Z,99.90
2022-08-14T23:46:00.324Z,99.90
2022-08-14T23:48:29.248Z,99.90
2022-08-14T23:50:58.762Z,99.90
2022-08-14T23:53:47.376Z,99.90
2022-08-14T23:56:19.481Z,99.90
2022-08-14T23:59:00.595Z,99.90
